sensor_id;sensor_type;location;lat;lon;timestamp;temperature;humidity
6206;DHT22;3136;48.788;9.772;2022-09-01T00:01:31;14.00;99.90
6206;DHT22;3136;48.788;9.772;2022-09-01T00:03:58;14.00;99.90
6206;DHT22;3136;48.788;9.772;2022-09-01T00:06:30;13.90;99.60
6206;DHT22;3136;48.788;9.772;2022-09-01T00:09:09;13.80;30.30
6206;DHT22;3136;48.788;9.772;2022-09-01T00:11:36;13.80;1.00
6206;DHT22;3136;48.788;9.772;2022-09-01T00:14:03;13.80;1.00
6206;DHT22;3136;48.788;9.772;2022-09-01T00:16:31;13.70;1.00
6206;DHT22;3136;48.788;9.772;2022-09-01T00:18:56;13.70;1.00
6206;DHT22;3136;48.788;9.772;2022-09-01T00:21:31;13.60;25.00
6206;DHT22;3136;48.788;9.772;2022-09-01T00:23:59;13.70;47.20
6206;DHT22;3136;48.788;9.772;2022-09-01T00:26:24;13.60;99.90
6206;DHT22;3136;48.788;9.772;2022-09-01T00:28:50;13.60;99.10
6206;DHT22;3136;48.788;9.772;2022-09-01T00:31:17;13.50;99.90
6206;DHT22;3136;48.788;9.772;2022-09-01T00:33:46;13.60;99.90
6206;DHT22;3136;48.788;9.772;2022-09-01T00:36:13;13.50;18.60
6206;DHT22;3136;48.788;9.772;2022-09-01T00:38:39;13.50;1.00
6206;DHT22;3136;48.788;9.772;2022-09-01T00:41:05;13.40;1.00
6206;DHT22;3136;48.788;9.772;2022-09-01T00:46:06;13.30;22.80
6206;DHT22;3136;48.788;9.772;2022-09-01T00:48:32;13.30;81.10
6206;DHT22;3136;48.788;9.772;2022-09-01T00:50:58;13.30;99.90
6206;DHT22;3136;48.788;9.772;2022-09-01T00:53:24;13.20;99.90
6206;DHT22;3136;48.788;9.772;2022-09-01T00:55:50;13.20;99.90
6206;DHT22;3136;48.788;9.772;2022-09-01T00:58:16;13.20;99.90
6206;DHT22;3136;48.788;9.772;2022-09-01T01:00:44;13.10;99.90
6206;DHT22;3136;48.788;9.772;2022-09-01T01:03:12;13.20;99.90
6206;DHT22;3136;48.788;9.772;2022-09-01T01:05:41;13.10;99.90
6206;DHT22;3136;48.788;9.772;2022-09-01T01:08:11;13.00;99.90
6206;DHT22;3136;48.788;9.772;2022-09-01T01:10:39;13.00;99.90
6206;DHT22;3136;48.788;9.772;2022-09-01T01:13:08;13.00;99.90
6206;DHT22;3136;48.788;9.772;2022-09-01T01:15:34;13.00;99.90
6206;DHT22;3136;48.788;9.772;2022-09-01T01:18:01;12.90;99.90
6206;DHT22;3136;48.788;9.772;2022-09-01T01:20:29;13.00;99.90
6206;DHT22;3136;48.788;9.772;2022-09-01T01:23:26;13.00;99.90
6206;DHT22;3136;48.788;9.772;2022-09-01T01:25:59;12.90;99.90
6206;DHT22;3136;48.788;9.772;2022-09-01T01:28:31;12.80;99.90
6206;DHT22;3136;48.788;9.772;2022-09-01T01:31:00;12.80;99.90
6206;DHT22;3136;48.788;9.772;2022-09-01T01:33:32;12.70;99.90
6206;DHT22;3136;48.788;9.772;2022-09-01T01:35:59;12.80;99.90
6206;DHT22;3136;48.788;9.772;2022-09-01T01:38:26;12.80;99.90
6206;DHT22;3136;48.788;9.772;2022-09-01T01:40:52;12.70;99.90
6206;DHT22;3136;48.788;9.772;2022-09-01T01:43:20;12.70;99.90
6206;DHT22;3136;48.788;9.772;2022-09-01T01:45:50;12.60;99.90
6206;DHT22;3136;48.788;9.772;2022-09-01T01:48:17;12.60;99.90
6206;DHT22;3136;48.788;9.772;2022-09-01T01:50:47;12.60;99.90
6206;DHT22;3136;48.788;9.772;2022-09-01T01:53:14;12.60;99.90
6206;DHT22;3136;48.788;9.772;2022-09-01T01:55:42;12.50;99.90
6206;DHT22;3136;48.788;9.772;2022-09-01T01:58:08;12.50;99.90
6206;DHT22;3136;48.788;9.772;2022-09-01T02:00:36;12.40;99.90
6206;DHT22;3136;48.788;9.772;2022-09-01T02:03:03;12.30;99.90
6206;DHT22;3136;48.788;9.772;2022-09-01T02:05:31;12.50;99.90
6206;DHT22;3136;48.788;9.772;2022-09-01T02:08:01;12.30;99.90
6206;DHT22;3136;48.788;9.772;2022-09-01T02:10:35;12.30;99.90
6206;DHT22;3136;48.788;9.772;2022-09-01T02:13:02;12.30;99.90
6206;DHT22;3136;48.788;9.772;2022-09-01T02:15:38;12.30;99.90
6206;DHT22;3136;48.788;9.772;2022-09-01T02:18:10;12.20;99.90
6206;DHT22;3136;48.788;9.772;2022-09-01T02:20:39;12.20;99.90
6206;DHT22;3136;48.788;9.772;2022-09-01T02:23:05;12.20;99.90
6206;DHT22;3136;48.788;9.772;2022-09-01T02:25:37;12.20;99.90
6206;DHT22;3136;48.788;9.772;2022-09-01T02:28:04;12.20;99.90
6206;DHT22;3136;48.788;9.772;2022-09-01T02:30:34;12.10;99.90
6206;DHT22;3136;48.788;9.772;2022-09-01T02:33:02;12.10;99.90
6206;DHT22;3136;48.788;9.772;2022-09-01T02:35:29;12.10;99.90
6206;DHT22;3136;48.788;9.772;2022-09-01T02:37:59;12.10;99.90
6206;DHT22;3136;48.788;9.772;2022-09-01T02:40:26;12.00;99.90
6206;DHT22;3136;48.788;9.772;2022-09-01T02:42:55;12.00;99.90
6206;DHT22;3136;48.788;9.772;2022-09-01T02:45:21;12.10;99.90
6206;DHT22;3136;48.788;9.772;2022-09-01T02:47:48;12.00;99.90
6206;DHT22;3136;48.788;9.772;2022-09-01T02:50:16;12.00;99.90
6206;DHT22;3136;48.788;9.772;2022-09-01T02:52:47;11.90;99.90
6206;DHT22;3136;48.788;9.772;2022-09-01T02:55:14;11.90;99.90
6206;DHT22;3136;48.788;9.772;2022-09-01T02:57:48;11.90;99.90
6206;DHT22;3136;48.788;9.772;2022-09-01T03:00:15;11.90;99.90
6206;DHT22;3136;48.788;9.772;2022-09-01T03:03:00;11.80;99.90
6206;DHT22;3136;48.788;9.772;2022-09-01T03:05:29;11.80;99.90
6206;DHT22;3136;48.788;9.772;2022-09-01T03:08:15;11.80;99.90
6206;DHT22;3136;48.788;9.772;2022-09-01T03:10:42;11.70;99.90
6206;DHT22;3136;48.788;9.772;2022-09-01T03:13:12;11.70;99.90
6206;DHT22;3136;48.788;9.772;2022-09-01T03:15:38;11.70;99.90
6206;DHT22;3136;48.788;9.772;2022-09-01T03:18:05;11.70;99.90
6206;DHT22;3136;48.788;9.772;2022-09-01T03:20:33;11.70;99.90
6206;DHT22;3136;48.788;9.772;2022-09-01T03:23:00;11.80;99.90
6206;DHT22;3136;48.788;9.772;2022-09-01T03:25:26;11.60;99.90
6206;DHT22;3136;48.788;9.772;2022-09-01T03:27:55;11.60;99.90
6206;DHT22;3136;48.788;9.772;2022-09-01T03:30:30;11.60;99.90
6206;DHT22;3136;48.788;9.772;2022-09-01T03:32:57;11.60;99.90
6206;DHT22;3136;48.788;9.772;2022-09-01T03:35:24;11.60;99.90
6206;DHT22;3136;48.788;9.772;2022-09-01T03:37:50;11.60;99.90
6206;DHT22;3136;48.788;9.772;2022-09-01T03:40:17;11.60;99.90
6206;DHT22;3136;48.788;9.772;2022-09-01T03:42:43;11.60;1.00
6206;DHT22;3136;48.788;9.772;2022-09-01T03:45:11;11.70;1.00
6206;DHT22;3136;48.788;9.772;2022-09-01T03:47:41;11.70;1.00
6206;DHT22;3136;48.788;9.772;2022-09-01T03:50:10;11.80;1.00
6206;DHT22;3136;48.788;9.772;2022-09-01T03:52:48;11.70;1.00
6206;DHT22;3136;48.788;9.772;2022-09-01T03:55:15;11.80;1.00
6206;DHT22;3136;48.788;9.772;2022-09-01T03:57:51;11.70;1.00
6206;DHT22;3136;48.788;9.772;2022-09-01T04:00:19;11.80;1.00
6206;DHT22;3136;48.788;9.772;2022-09-01T04:02:49;11.80;1.00
6206;DHT22;3136;48.788;9.772;2022-09-01T04:05:18;12.00;1.00
6206;DHT22;3136;48.788;9.772;2022-09-01T04:07:50;12.00;1.00
6206;DHT22;3136;48.788;9.772;2022-09-01T04:10:17;12.00;1.00
6206;DHT22;3136;48.788;9.772;2022-09-01T04:12:44;12.10;1.00
6206;DHT22;3136;48.788;9.772;2022-09-01T04:15:11;12.10;1.00
6206;DHT22;3136;48.788;9.772;2022-09-01T04:17:36;12.20;1.00
6206;DHT22;3136;48.788;9.772;2022-09-01T04:20:21;12.40;1.00
6206;DHT22;3136;48.788;9.772;2022-09-01T04:22:48;12.40;1.00
6206;DHT22;3136;48.788;9.772;2022-09-01T04:25:16;12.40;1.00
6206;DHT22;3136;48.788;9.772;2022-09-01T04:27:41;12.40;1.00
6206;DHT22;3136;48.788;9.772;2022-09-01T04:30:10;12.50;1.00
6206;DHT22;3136;48.788;9.772;2022-09-01T04:32:37;12.50;1.00
6206;DHT22;3136;48.788;9.772;2022-09-01T04:35:04;12.50;99.90
6206;DHT22;3136;48.788;9.772;2022-09-01T04:37:29;12.60;1.00
6206;DHT22;3136;48.788;9.772;2022-09-01T04:39:56;12.60;99.90
6206;DHT22;3136;48.788;9.772;2022-09-01T04:42:23;12.60;99.90
6206;DHT22;3136;48.788;9.772;2022-09-01T04:44:49;12.60;99.90
6206;DHT22;3136;48.788;9.772;2022-09-01T04:47:15;12.70;99.90
6206;DHT22;3136;48.788;9.772;2022-09-01T04:49:47;12.70;99.90
6206;DHT22;3136;48.788;9.772;2022-09-01T04:52:13;12.80;99.90
6206;DHT22;3136;48.788;9.772;2022-09-01T04:54:39;12.80;99.90
6206;DHT22;3136;48.788;9.772;2022-09-01T04:57:05;12.80;99.90
6206;DHT22;3136;48.788;9.772;2022-09-01T04:59:31;12.90;99.90
6206;DHT22;3136;48.788;9.772;2022-09-01T05:01:58;12.90;99.90
6206;DHT22;3136;48.788;9.772;2022-09-01T05:04:28;12.90;99.90
6206;DHT22;3136;48.788;9.772;2022-09-01T05:06:58;13.00;99.90
6206;DHT22;3136;48.788;9.772;2022-09-01T05:09:30;13.10;99.90
6206;DHT22;3136;48.788;9.772;2022-09-01T05:11:57;13.00;99.90
6206;DHT22;3136;48.788;9.772;2022-09-01T05:14:26;13.00;99.90
6206;DHT22;3136;48.788;9.772;2022-09-01T05:16:58;13.10;99.90
6206;DHT22;3136;48.788;9.772;2022-09-01T05:19:24;13.20;99.90
6206;DHT22;3136;48.788;9.772;2022-09-01T05:21:53;13.20;99.90
6206;DHT22;3136;48.788;9.772;2022-09-01T05:24:22;13.30;99.90
6206;DHT22;3136;48.788;9.772;2022-09-01T05:26:51;13.40;99.90
6206;DHT22;3136;48.788;9.772;2022-09-01T05:29:17;13.40;99.90
6206;DHT22;3136;48.788;9.772;2022-09-01T05:31:45;13.30;99.90
6206;DHT22;3136;48.788;9.772;2022-09-01T05:34:12;13.40;99.90
6206;DHT22;3136;48.788;9.772;2022-09-01T05:36:41;13.50;45.90
6206;DHT22;3136;48.788;9.772;2022-09-01T05:39:07;13.50;31.50
6206;DHT22;3136;48.788;9.772;2022-09-01T05:41:37;13.60;99.90
6206;DHT22;3136;48.788;9.772;2022-09-01T05:44:04;13.80;99.90
6206;DHT22;3136;48.788;9.772;2022-09-01T05:46:33;13.70;1.00
6206;DHT22;3136;48.788;9.772;2022-09-01T05:49:00;13.70;1.00
6206;DHT22;3136;48.788;9.772;2022-09-01T05:51:28;13.80;1.00
6206;DHT22;3136;48.788;9.772;2022-09-01T05:53:55;13.90;1.00
6206;DHT22;3136;48.788;9.772;2022-09-01T05:56:25;14.00;1.00
6206;DHT22;3136;48.788;9.772;2022-09-01T05:58:52;14.10;1.00
6206;DHT22;3136;48.788;9.772;2022-09-01T06:01:23;14.10;1.00
6206;DHT22;3136;48.788;9.772;2022-09-01T06:03:51;14.10;1.00
6206;DHT22;3136;48.788;9.772;2022-09-01T06:06:29;14.40;1.00
6206;DHT22;3136;48.788;9.772;2022-09-01T06:08:54;14.20;1.00
6206;DHT22;3136;48.788;9.772;2022-09-01T06:11:25;14.40;1.00
6206;DHT22;3136;48.788;9.772;2022-09-01T06:13:52;14.50;99.90
6206;DHT22;3136;48.788;9.772;2022-09-01T06:16:22;14.60;99.90
6206;DHT22;3136;48.788;9.772;2022-09-01T06:18:49;14.70;99.90
6206;DHT22;3136;48.788;9.772;2022-09-01T06:21:17;14.70;99.90
6206;DHT22;3136;48.788;9.772;2022-09-01T06:23:43;14.80;99.90
6206;DHT22;3136;48.788;9.772;2022-09-01T06:26:17;14.90;99.90
6206;DHT22;3136;48.788;9.772;2022-09-01T06:28:43;15.00;1.00
6206;DHT22;3136;48.788;9.772;2022-09-01T06:31:09;15.20;99.90
6206;DHT22;3136;48.788;9.772;2022-09-01T06:33:36;15.30;1.00
6206;DHT22;3136;48.788;9.772;2022-09-01T06:36:04;15.50;1.00
6206;DHT22;3136;48.788;9.772;2022-09-01T06:38:30;15.50;99.90
6206;DHT22;3136;48.788;9.772;2022-09-01T06:41:04;15.50;99.90
6206;DHT22;3136;48.788;9.772;2022-09-01T06:43:32;15.60;99.90
6206;DHT22;3136;48.788;9.772;2022-09-01T06:46:00;15.60;99.90
6206;DHT22;3136;48.788;9.772;2022-09-01T06:48:27;15.70;99.90
6206;DHT22;3136;48.788;9.772;2022-09-01T06:50:58;15.80;1.00
6206;DHT22;3136;48.788;9.772;2022-09-01T06:53:23;15.90;1.00
6206;DHT22;3136;48.788;9.772;2022-09-01T06:55:49;16.00;1.00
6206;DHT22;3136;48.788;9.772;2022-09-01T06:58:14;16.10;1.00
6206;DHT22;3136;48.788;9.772;2022-09-01T07:00:41;16.30;99.90
6206;DHT22;3136;48.788;9.772;2022-09-01T07:03:13;16.40;99.90
6206;DHT22;3136;48.788;9.772;2022-09-01T07:05:40;16.60;1.00
6206;DHT22;3136;48.788;9.772;2022-09-01T07:08:09;16.80;1.00
6206;DHT22;3136;48.788;9.772;2022-09-01T07:10:44;17.00;99.90
6206;DHT22;3136;48.788;9.772;2022-09-01T07:13:12;16.90;1.00
6206;DHT22;3136;48.788;9.772;2022-09-01T07:15:46;16.90;1.00
6206;DHT22;3136;48.788;9.772;2022-09-01T07:18:15;17.00;1.00
6206;DHT22;3136;48.788;9.772;2022-09-01T07:20:42;17.20;1.00
6206;DHT22;3136;48.788;9.772;2022-09-01T07:23:07;17.20;99.90
6206;DHT22;3136;48.788;9.772;2022-09-01T07:25:41;17.20;32.60
6206;DHT22;3136;48.788;9.772;2022-09-01T07:28:09;17.40;1.00
6206;DHT22;3136;48.788;9.772;2022-09-01T07:30:41;17.40;1.00
6206;DHT22;3136;48.788;9.772;2022-09-01T07:33:07;17.60;1.00
6206;DHT22;3136;48.788;9.772;2022-09-01T07:35:36;17.90;99.90
6206;DHT22;3136;48.788;9.772;2022-09-01T07:38:03;18.00;6.60
6206;DHT22;3136;48.788;9.772;2022-09-01T07:40:30;18.00;99.90
6206;DHT22;3136;48.788;9.772;2022-09-01T07:42:56;18.10;99.90
6206;DHT22;3136;48.788;9.772;2022-09-01T07:45:22;18.20;99.90
6206;DHT22;3136;48.788;9.772;2022-09-01T07:47:48;18.20;99.90
6206;DHT22;3136;48.788;9.772;2022-09-01T07:50:14;18.30;99.90
6206;DHT22;3136;48.788;9.772;2022-09-01T07:52:40;18.30;99.90
6206;DHT22;3136;48.788;9.772;2022-09-01T07:55:15;18.40;99.90
6206;DHT22;3136;48.788;9.772;2022-09-01T07:57:42;18.30;99.90
6206;DHT22;3136;48.788;9.772;2022-09-01T08:00:09;18.30;99.90
6206;DHT22;3136;48.788;9.772;2022-09-01T08:02:36;18.30;99.90
6206;DHT22;3136;48.788;9.772;2022-09-01T08:05:06;18.50;99.90
6206;DHT22;3136;48.788;9.772;2022-09-01T08:07:34;18.50;99.90
6206;DHT22;3136;48.788;9.772;2022-09-01T08:09:59;18.50;99.90
6206;DHT22;3136;48.788;9.772;2022-09-01T08:12:25;18.50;99.90
6206;DHT22;3136;48.788;9.772;2022-09-01T08:14:51;18.50;99.90
6206;DHT22;3136;48.788;9.772;2022-09-01T08:17:18;18.60;99.90
6206;DHT22;3136;48.788;9.772;2022-09-01T08:19:44;18.70;99.90
6206;DHT22;3136;48.788;9.772;2022-09-01T08:22:11;18.60;99.90
6206;DHT22;3136;48.788;9.772;2022-09-01T08:24:37;18.60;99.90
6206;DHT22;3136;48.788;9.772;2022-09-01T08:27:02;18.60;99.90
6206;DHT22;3136;48.788;9.772;2022-09-01T08:29:29;18.60;99.90
6206;DHT22;3136;48.788;9.772;2022-09-01T08:31:54;18.60;99.90
6206;DHT22;3136;48.788;9.772;2022-09-01T08:34:24;18.60;99.90
6206;DHT22;3136;48.788;9.772;2022-09-01T08:36:49;18.70;99.90
6206;DHT22;3136;48.788;9.772;2022-09-01T08:39:15;18.70;99.90
6206;DHT22;3136;48.788;9.772;2022-09-01T08:42:02;18.80;99.90
6206;DHT22;3136;48.788;9.772;2022-09-01T08:44:40;18.90;99.90
6206;DHT22;3136;48.788;9.772;2022-09-01T08:47:12;19.10;99.90
6206;DHT22;3136;48.788;9.772;2022-09-01T08:49:39;19.30;99.90
6206;DHT22;3136;48.788;9.772;2022-09-01T08:55:15;19.20;99.90
6206;DHT22;3136;48.788;9.772;2022-09-01T08:57:44;19.10;99.90
6206;DHT22;3136;48.788;9.772;2022-09-01T09:00:13;19.10;99.90
6206;DHT22;3136;48.788;9.772;2022-09-01T09:11:07;19.20;99.90
6206;DHT22;3136;48.788;9.772;2022-09-01T09:13:54;19.30;99.90
6206;DHT22;3136;48.788;9.772;2022-09-01T09:16:29;19.30;99.90
6206;DHT22;3136;48.788;9.772;2022-09-01T09:19:15;19.30;99.90
6206;DHT22;3136;48.788;9.772;2022-09-01T09:21:46;19.30;99.90
6206;DHT22;3136;48.788;9.772;2022-09-01T09:29:53;19.80;99.90
6206;DHT22;3136;48.788;9.772;2022-09-01T09:32:20;19.90;99.90
6206;DHT22;3136;48.788;9.772;2022-09-01T09:34:47;20.00;99.90
6206;DHT22;3136;48.788;9.772;2022-09-01T09:39:44;19.90;99.90
6206;DHT22;3136;48.788;9.772;2022-09-01T09:42:12;19.90;99.90
6206;DHT22;3136;48.788;9.772;2022-09-01T09:44:44;20.00;99.90
6206;DHT22;3136;48.788;9.772;2022-09-01T09:47:36;20.00;99.90
6206;DHT22;3136;48.788;9.772;2022-09-01T09:50:20;20.00;99.90
6206;DHT22;3136;48.788;9.772;2022-09-01T09:52:46;20.10;99.90
6206;DHT22;3136;48.788;9.772;2022-09-01T09:55:20;20.20;99.90
6206;DHT22;3136;48.788;9.772;2022-09-01T09:57:47;20.30;99.90
6206;DHT22;3136;48.788;9.772;2022-09-01T10:02:45;20.60;99.90
6206;DHT22;3136;48.788;9.772;2022-09-01T10:07:48;20.70;99.90
6206;DHT22;3136;48.788;9.772;2022-09-01T10:10:38;20.60;99.90
6206;DHT22;3136;48.788;9.772;2022-09-01T10:13:09;20.60;99.90
6206;DHT22;3136;48.788;9.772;2022-09-01T10:15:35;20.50;99.90
6206;DHT22;3136;48.788;9.772;2022-09-01T10:18:29;20.60;99.90
6206;DHT22;3136;48.788;9.772;2022-09-01T10:21:00;20.80;99.90
6206;DHT22;3136;48.788;9.772;2022-09-01T10:23:32;21.30;99.90
6206;DHT22;3136;48.788;9.772;2022-09-01T10:26:15;22.10;99.90
6206;DHT22;3136;48.788;9.772;2022-09-01T10:29:00;22.70;99.90
6206;DHT22;3136;48.788;9.772;2022-09-01T10:31:30;22.70;99.90
6206;DHT22;3136;48.788;9.772;2022-09-01T10:33:56;22.70;99.90
6206;DHT22;3136;48.788;9.772;2022-09-01T10:36:23;22.50;99.90
6206;DHT22;3136;48.788;9.772;2022-09-01T10:38:48;22.20;99.90
6206;DHT22;3136;48.788;9.772;2022-09-01T10:41:50;21.80;99.90
6206;DHT22;3136;48.788;9.772;2022-09-01T10:46:45;21.40;99.90
6206;DHT22;3136;48.788;9.772;2022-09-01T10:51:56;21.10;99.90
6206;DHT22;3136;48.788;9.772;2022-09-01T10:57:10;21.30;99.90
6206;DHT22;3136;48.788;9.772;2022-09-01T10:59:45;21.50;99.90
6206;DHT22;3136;48.788;9.772;2022-09-01T11:02:14;22.00;99.90
6206;DHT22;3136;48.788;9.772;2022-09-01T11:09:46;23.80;99.90
6206;DHT22;3136;48.788;9.772;2022-09-01T11:20:35;22.70;99.90
6206;DHT22;3136;48.788;9.772;2022-09-01T11:25:42;22.20;99.90
6206;DHT22;3136;48.788;9.772;2022-09-01T11:30:46;22.20;99.90
6206;DHT22;3136;48.788;9.772;2022-09-01T11:33:42;22.10;99.90
6206;DHT22;3136;48.788;9.772;2022-09-01T11:39:30;21.70;99.90
6206;DHT22;3136;48.788;9.772;2022-09-01T11:42:20;21.70;99.90
6206;DHT22;3136;48.788;9.772;2022-09-01T11:44:58;21.70;99.90
6206;DHT22;3136;48.788;9.772;2022-09-01T11:47:37;21.50;99.90
6206;DHT22;3136;48.788;9.772;2022-09-01T11:52:41;21.60;99.90
6206;DHT22;3136;48.788;9.772;2022-09-01T11:55:08;21.60;99.90
6206;DHT22;3136;48.788;9.772;2022-09-01T11:57:37;21.70;99.90
6206;DHT22;3136;48.788;9.772;2022-09-01T12:00:08;21.80;99.90
6206;DHT22;3136;48.788;9.772;2022-09-01T12:02:40;22.00;99.90
6206;DHT22;3136;48.788;9.772;2022-09-01T12:07:49;22.20;99.90
6206;DHT22;3136;48.788;9.772;2022-09-01T12:10:34;22.50;99.90
6206;DHT22;3136;48.788;9.772;2022-09-01T12:15:32;22.90;99.90
6206;DHT22;3136;48.788;9.772;2022-09-01T12:18:29;23.20;99.90
6206;DHT22;3136;48.788;9.772;2022-09-01T12:21:00;23.40;99.90
6206;DHT22;3136;48.788;9.772;2022-09-01T12:23:32;23.30;99.90
6206;DHT22;3136;48.788;9.772;2022-09-01T12:26:01;24.20;99.90
6206;DHT22;3136;48.788;9.772;2022-09-01T12:28:29;25.40;99.90
6206;DHT22;3136;48.788;9.772;2022-09-01T12:30:56;26.80;99.90
6206;DHT22;3136;48.788;9.772;2022-09-01T12:33:23;28.10;99.90
6206;DHT22;3136;48.788;9.772;2022-09-01T12:35:50;28.80;99.90
6206;DHT22;3136;48.788;9.772;2022-09-01T12:38:24;28.30;99.90
6206;DHT22;3136;48.788;9.772;2022-09-01T12:40:54;27.50;99.90
6206;DHT22;3136;48.788;9.772;2022-09-01T12:43:46;27.50;99.90
6206;DHT22;3136;48.788;9.772;2022-09-01T12:46:40;28.00;99.90
6206;DHT22;3136;48.788;9.772;2022-09-01T12:49:18;28.80;99.90
6206;DHT22;3136;48.788;9.772;2022-09-01T12:51:44;29.10;99.90
6206;DHT22;3136;48.788;9.772;2022-09-01T12:54:13;28.60;99.90
6206;DHT22;3136;48.788;9.772;2022-09-01T12:56:39;28.10;99.90
6206;DHT22;3136;48.788;9.772;2022-09-01T12:59:11;28.10;99.90
6206;DHT22;3136;48.788;9.772;2022-09-01T13:01:39;28.30;99.90
6206;DHT22;3136;48.788;9.772;2022-09-01T13:04:06;28.90;99.90
6206;DHT22;3136;48.788;9.772;2022-09-01T13:06:34;29.60;99.90
6206;DHT22;3136;48.788;9.772;2022-09-01T13:08:59;29.80;99.90
6206;DHT22;3136;48.788;9.772;2022-09-01T13:11:25;29.40;99.90
6206;DHT22;3136;48.788;9.772;2022-09-01T13:13:50;29.50;99.90
6206;DHT22;3136;48.788;9.772;2022-09-01T13:16:16;30.10;99.90
6206;DHT22;3136;48.788;9.772;2022-09-01T13:18:42;30.10;99.90
6206;DHT22;3136;48.788;9.772;2022-09-01T13:21:08;30.30;99.90
6206;DHT22;3136;48.788;9.772;2022-09-01T13:23:33;30.20;99.90
6206;DHT22;3136;48.788;9.772;2022-09-01T13:25:59;30.20;99.90
6206;DHT22;3136;48.788;9.772;2022-09-01T13:28:25;30.40;99.90
6206;DHT22;3136;48.788;9.772;2022-09-01T13:30:57;30.60;99.90
6206;DHT22;3136;48.788;9.772;2022-09-01T13:33:23;31.00;99.90
6206;DHT22;3136;48.788;9.772;2022-09-01T13:35:50;31.10;99.90
6206;DHT22;3136;48.788;9.772;2022-09-01T13:38:16;30.80;99.90
6206;DHT22;3136;48.788;9.772;2022-09-01T13:40:43;30.40;99.90
6206;DHT22;3136;48.788;9.772;2022-09-01T13:43:11;30.30;99.90
6206;DHT22;3136;48.788;9.772;2022-09-01T13:45:37;30.10;99.90
6206;DHT22;3136;48.788;9.772;2022-09-01T13:48:06;29.50;99.90
6206;DHT22;3136;48.788;9.772;2022-09-01T13:50:31;29.10;99.90
6206;DHT22;3136;48.788;9.772;2022-09-01T13:52:57;29.20;99.90
6206;DHT22;3136;48.788;9.772;2022-09-01T13:55:25;29.30;99.90
6206;DHT22;3136;48.788;9.772;2022-09-01T13:57:52;29.00;99.90
6206;DHT22;3136;48.788;9.772;2022-09-01T14:00:21;28.80;99.90
6206;DHT22;3136;48.788;9.772;2022-09-01T14:02:50;28.40;99.90
6206;DHT22;3136;48.788;9.772;2022-09-01T14:05:26;28.00;99.90
6206;DHT22;3136;48.788;9.772;2022-09-01T14:07:52;27.60;99.90
6206;DHT22;3136;48.788;9.772;2022-09-01T14:10:21;27.30;99.90
6206;DHT22;3136;48.788;9.772;2022-09-01T14:12:47;27.00;99.90
6206;DHT22;3136;48.788;9.772;2022-09-01T14:15:14;26.80;99.90
6206;DHT22;3136;48.788;9.772;2022-09-01T14:17:41;26.30;99.90
6206;DHT22;3136;48.788;9.772;2022-09-01T14:20:10;25.90;99.90
6206;DHT22;3136;48.788;9.772;2022-09-01T14:22:37;25.30;99.90
6206;DHT22;3136;48.788;9.772;2022-09-01T14:25:04;24.70;99.90
6206;DHT22;3136;48.788;9.772;2022-09-01T14:27:30;24.30;99.90
6206;DHT22;3136;48.788;9.772;2022-09-01T14:29:56;24.00;99.90
6206;DHT22;3136;48.788;9.772;2022-09-01T14:32:22;23.90;99.90
6206;DHT22;3136;48.788;9.772;2022-09-01T14:34:54;23.80;99.90
6206;DHT22;3136;48.788;9.772;2022-09-01T14:37:21;23.70;99.90
6206;DHT22;3136;48.788;9.772;2022-09-01T14:39:51;23.70;99.90
6206;DHT22;3136;48.788;9.772;2022-09-01T14:42:16;23.70;99.90
6206;DHT22;3136;48.788;9.772;2022-09-01T14:44:44;23.70;99.90
6206;DHT22;3136;48.788;9.772;2022-09-01T14:47:11;23.70;99.90
6206;DHT22;3136;48.788;9.772;2022-09-01T14:49:36;23.60;99.90
6206;DHT22;3136;48.788;9.772;2022-09-01T14:52:04;23.40;99.90
6206;DHT22;3136;48.788;9.772;2022-09-01T14:54:36;23.40;99.90
6206;DHT22;3136;48.788;9.772;2022-09-01T14:57:02;23.30;99.90
6206;DHT22;3136;48.788;9.772;2022-09-01T14:59:28;23.20;99.90
6206;DHT22;3136;48.788;9.772;2022-09-01T15:01:53;23.20;99.90
6206;DHT22;3136;48.788;9.772;2022-09-01T15:04:19;23.20;99.90
6206;DHT22;3136;48.788;9.772;2022-09-01T15:06:45;23.10;99.90
6206;DHT22;3136;48.788;9.772;2022-09-01T15:09:11;23.00;99.90
6206;DHT22;3136;48.788;9.772;2022-09-01T15:11:36;22.80;99.90
6206;DHT22;3136;48.788;9.772;2022-09-01T15:14:03;22.60;99.90
6206;DHT22;3136;48.788;9.772;2022-09-01T15:16:29;22.50;99.90
6206;DHT22;3136;48.788;9.772;2022-09-01T15:18:54;22.40;99.90
6206;DHT22;3136;48.788;9.772;2022-09-01T15:21:24;22.30;99.90
6206;DHT22;3136;48.788;9.772;2022-09-01T15:23:51;22.20;99.90
6206;DHT22;3136;48.788;9.772;2022-09-01T15:26:19;22.20;99.90
6206;DHT22;3136;48.788;9.772;2022-09-01T15:28:46;22.10;99.90
6206;DHT22;3136;48.788;9.772;2022-09-01T15:31:13;22.10;99.90
6206;DHT22;3136;48.788;9.772;2022-09-01T15:33:40;22.10;99.90
6206;DHT22;3136;48.788;9.772;2022-09-01T15:36:06;22.10;99.90
6206;DHT22;3136;48.788;9.772;2022-09-01T15:38:32;22.10;99.90
6206;DHT22;3136;48.788;9.772;2022-09-01T15:40:58;22.10;99.90
6206;DHT22;3136;48.788;9.772;2022-09-01T15:43:27;22.00;99.90
6206;DHT22;3136;48.788;9.772;2022-09-01T15:45:53;22.00;99.90
6206;DHT22;3136;48.788;9.772;2022-09-01T15:48:19;22.00;99.90
6206;DHT22;3136;48.788;9.772;2022-09-01T15:50:45;22.00;99.90
6206;DHT22;3136;48.788;9.772;2022-09-01T15:53:10;22.00;99.90
6206;DHT22;3136;48.788;9.772;2022-09-01T15:55:42;21.90;99.90
6206;DHT22;3136;48.788;9.772;2022-09-01T15:58:10;21.90;99.90
6206;DHT22;3136;48.788;9.772;2022-09-01T16:00:38;21.80;99.90
6206;DHT22;3136;48.788;9.772;2022-09-01T16:03:05;21.70;99.90
6206;DHT22;3136;48.788;9.772;2022-09-01T16:05:33;21.60;99.90
6206;DHT22;3136;48.788;9.772;2022-09-01T16:07:59;21.60;99.90
6206;DHT22;3136;48.788;9.772;2022-09-01T16:10:27;21.50;99.90
6206;DHT22;3136;48.788;9.772;2022-09-01T16:12:54;21.50;99.90
6206;DHT22;3136;48.788;9.772;2022-09-01T16:15:22;21.40;99.90
6206;DHT22;3136;48.788;9.772;2022-09-01T16:17:55;21.30;99.90
6206;DHT22;3136;48.788;9.772;2022-09-01T16:20:26;21.20;99.90
6206;DHT22;3136;48.788;9.772;2022-09-01T16:23:09;21.20;99.90
6206;DHT22;3136;48.788;9.772;2022-09-01T16:25:36;21.20;99.90
6206;DHT22;3136;48.788;9.772;2022-09-01T16:28:09;21.20;99.90
6206;DHT22;3136;48.788;9.772;2022-09-01T16:30:37;21.20;99.90
6206;DHT22;3136;48.788;9.772;2022-09-01T16:33:04;21.20;99.90
6206;DHT22;3136;48.788;9.772;2022-09-01T16:38:50;21.10;99.90
6206;DHT22;3136;48.788;9.772;2022-09-01T17:00:04;21.00;99.90
6206;DHT22;3136;48.788;9.772;2022-09-01T17:02:58;20.90;99.90
6206;DHT22;3136;48.788;9.772;2022-09-01T17:05:53;20.90;99.90
6206;DHT22;3136;48.788;9.772;2022-09-01T17:08:27;20.90;99.90
6206;DHT22;3136;48.788;9.772;2022-09-01T17:13:47;20.80;99.90
6206;DHT22;3136;48.788;9.772;2022-09-01T17:16:24;20.70;99.90
6206;DHT22;3136;48.788;9.772;2022-09-01T17:18:54;20.70;99.90
6206;DHT22;3136;48.788;9.772;2022-09-01T17:21:21;20.60;99.90
6206;DHT22;3136;48.788;9.772;2022-09-01T17:24:02;20.60;99.90
6206;DHT22;3136;48.788;9.772;2022-09-01T17:26:32;20.50;99.90
6206;DHT22;3136;48.788;9.772;2022-09-01T17:29:16;20.50;99.90
6206;DHT22;3136;48.788;9.772;2022-09-01T17:32:05;20.40;99.90
6206;DHT22;3136;48.788;9.772;2022-09-01T17:34:38;20.30;99.90
6206;DHT22;3136;48.788;9.772;2022-09-01T17:43:05;20.00;99.90
6206;DHT22;3136;48.788;9.772;2022-09-01T17:48:29;19.80;99.90
6206;DHT22;3136;48.788;9.772;2022-09-01T18:01:58;19.30;99.90
6206;DHT22;3136;48.788;9.772;2022-09-01T18:04:39;19.20;99.90
6206;DHT22;3136;48.788;9.772;2022-09-01T18:07:14;19.00;99.90
6206;DHT22;3136;48.788;9.772;2022-09-01T18:09:46;18.90;99.90